createdAt,value
2023-04-20T00:01:11.035Z,11.35
2023-04-20T00:03:38.568Z,10.00
2023-04-20T00:06:06.260Z,9.10
2023-04-20T00:08:33.527Z,9.35
2023-04-20T00:11:00.764Z,8.63
2023-04-20T00:13:28.122Z,8.55
2023-04-20T00:15:55.404Z,7.68
2023-04-20T00:18:22.704Z,7.43
2023-04-20T00:20:50.097Z,7.75
2023-04-20T00:23:18.718Z,8.48
2023-04-20T00:25:50.504Z,8.40
2023-04-20T00:28:19.353Z,7.82
2023-04-20T00:30:51.089Z,7.80
2023-04-20T00:33:19.758Z,7.95
2023-04-20T00:35:54.891Z,8.10
2023-04-20T00:38:25.361Z,8.02
2023-04-20T00:40:55.479Z,7.80
2023-04-20T00:43:28.177Z,8.05
2023-04-20T00:45:56.779Z,8.02
2023-04-20T00:48:26.074Z,9.82
2023-04-20T00:50:55.422Z,10.20
2023-04-20T00:53:24.883Z,12.93
2023-04-20T00:55:54.540Z,16.08
2023-04-20T00:58:24.937Z,18.13
2023-04-20T01:00:53.936Z,19.13
2023-04-20T01:03:22.969Z,18.45
2023-04-20T01:05:51.728Z,19.30
2023-04-20T01:08:18.994Z,14.88
2023-04-20T01:10:46.438Z,12.95
2023-04-20T01:13:13.692Z,11.40
2023-04-20T01:15:40.966Z,10.05
2023-04-20T01:18:09.676Z,9.35
2023-04-20T01:20:38.586Z,9.25
2023-04-20T01:23:05.784Z,9.27
2023-04-20T01:25:33.138Z,10.70
2023-04-20T01:28:00.550Z,12.35
2023-04-20T01:30:29.694Z,9.43
2023-04-20T01:32:56.941Z,11.52
2023-04-20T01:35:24.322Z,11.45
2023-04-20T01:37:52.036Z,11.48
2023-04-20T01:40:19.325Z,9.88
2023-04-20T01:42:46.575Z,10.63
2023-04-20T01:45:13.870Z,9.70
2023-04-20T01:47:41.174Z,9.55
2023-04-20T01:50:08.876Z,9.48
2023-04-20T01:52:36.268Z,9.07
2023-04-20T01:55:03.576Z,9.10
2023-04-20T01:57:30.829Z,8.43
2023-04-20T01:59:58.078Z,8.73
2023-04-20T02:02:25.434Z,9.35
2023-04-20T02:04:53.449Z,9.13
2023-04-20T02:07:21.089Z,8.95
2023-04-20T02:09:48.445Z,9.70
2023-04-20T02:12:15.900Z,9.80
2023-04-20T02:14:43.131Z,9.18
2023-04-20T02:17:10.999Z,8.88
2023-04-20T02:19:38.270Z,9.00
2023-04-20T02:22:05.728Z,8.27
2023-04-20T02:24:33.429Z,8.63
2023-04-20T02:27:01.523Z,9.20
2023-04-20T02:29:28.776Z,9.55
2023-04-20T02:31:56.098Z,8.85
2023-04-20T02:34:24.329Z,8.18
2023-04-20T02:36:51.558Z,9.20
2023-04-20T02:39:19.347Z,7.97
2023-04-20T02:41:46.792Z,8.82
2023-04-20T02:44:14.172Z,7.97
2023-04-20T02:46:41.608Z,8.10
2023-04-20T02:49:09.330Z,8.52
2023-04-20T02:51:40.998Z,8.05
2023-04-20T02:54:08.275Z,8.52
2023-04-20T02:56:36.237Z,7.80
2023-04-20T02:59:07.685Z,8.27
2023-04-20T03:01:53.927Z,8.20
2023-04-20T03:04:25.925Z,8.10
2023-04-20T03:07:04.192Z,7.80
2023-04-20T03:09:34.440Z,8.05
2023-04-20T03:12:14.516Z,7.70
2023-04-20T03:15:00.842Z,8.50
2023-04-20T03:17:40.264Z,8.82
2023-04-20T03:20:09.322Z,9.38
2023-04-20T03:22:37.433Z,8.55
2023-04-20T03:25:06.540Z,8.82
2023-04-20T03:27:49.040Z,9.02
2023-04-20T03:30:16.500Z,8.95
2023-04-20T03:32:47.167Z,9.02
2023-04-20T03:35:14.642Z,8.50
2023-04-20T03:37:43.277Z,9.63
2023-04-20T03:40:11.213Z,9.20
2023-04-20T03:42:38.539Z,8.32
2023-04-20T03:45:07.265Z,9.60
2023-04-20T03:47:34.576Z,9.00
2023-04-20T03:50:01.905Z,8.70
2023-04-20T03:52:29.226Z,8.82
2023-04-20T03:54:57.658Z,9.07
2023-04-20T03:57:25.052Z,9.55
2023-04-20T03:59:52.373Z,9.25
2023-04-20T04:02:22.916Z,9.60
2023-04-20T04:04:51.895Z,9.57
2023-04-20T04:07:21.619Z,9.65
2023-04-20T04:09:49.990Z,10.25
2023-04-20T04:12:18.085Z,9.38
2023-04-20T04:14:46.651Z,13.93
2023-04-20T04:17:16.003Z,15.60
2023-04-20T04:19:43.765Z,18.92
2023-04-20T04:22:11.235Z,19.60
2023-04-20T04:24:47.074Z,18.23
2023-04-20T04:27:16.531Z,13.95
2023-04-20T04:29:52.445Z,12.90
2023-04-20T04:32:21.748Z,11.07
2023-04-20T04:34:50.386Z,12.05
2023-04-20T04:37:17.811Z,12.00
2023-04-20T04:39:51.268Z,11.02
2023-04-20T04:42:27.746Z,11.32
2023-04-20T04:44:56.322Z,10.90
2023-04-20T04:47:34.630Z,10.45
2023-04-20T04:50:06.071Z,12.15
2023-04-20T04:52:33.949Z,11.93
2023-04-20T04:55:01.284Z,11.55
2023-04-20T04:57:28.790Z,11.95
2023-04-20T04:59:56.007Z,11.50
2023-04-20T05:02:23.298Z,12.23
2023-04-20T05:04:50.743Z,12.35
2023-04-20T05:07:18.276Z,13.23
2023-04-20T05:09:45.521Z,12.80
2023-04-20T05:12:12.765Z,13.68
2023-04-20T05:14:40.092Z,13.20
2023-04-20T05:17:07.371Z,12.27
2023-04-20T05:19:34.604Z,11.90
2023-04-20T05:22:01.806Z,12.77
2023-04-20T05:24:29.288Z,12.68
2023-04-20T05:26:56.568Z,12.32
2023-04-20T05:29:23.761Z,12.48
2023-04-20T05:31:51.032Z,11.27
2023-04-20T05:34:18.462Z,10.95
2023-04-20T05:36:47.201Z,12.27
2023-04-20T05:39:14.441Z,12.32
2023-04-20T05:41:41.721Z,12.13
2023-04-20T05:44:09.069Z,11.45
2023-04-20T05:46:36.306Z,12.05
2023-04-20T05:49:03.746Z,11.63
2023-04-20T05:51:34.021Z,12.02
2023-04-20T05:54:01.599Z,14.60
2023-04-20T05:56:28.903Z,11.93
2023-04-20T05:58:57.265Z,12.57
2023-04-20T06:01:24.484Z,10.98
2023-04-20T06:03:52.006Z,11.30
2023-04-20T06:06:19.340Z,11.00
2023-04-20T06:08:46.635Z,11.23
2023-04-20T06:11:13.933Z,10.98
2023-04-20T06:13:41.411Z,10.98
2023-04-20T06:16:11.021Z,10.07
2023-04-20T06:18:38.459Z,11.52
2023-04-20T06:21:05.795Z,11.25
2023-04-20T06:23:33.193Z,11.25
2023-04-20T06:26:00.633Z,11.52
2023-04-20T06:28:28.003Z,10.82
2023-04-20T06:30:55.529Z,11.35
2023-04-20T06:33:22.828Z,11.57
2023-04-20T06:35:51.672Z,11.00
2023-04-20T06:38:18.951Z,11.57
2023-04-20T06:40:46.359Z,10.20
2023-04-20T06:43:13.769Z,10.57
2023-04-20T06:45:41.333Z,11.15
2023-04-20T06:48:20.220Z,10.50
2023-04-20T06:50:55.123Z,10.25
2023-04-20T06:53:22.644Z,11.10
2023-04-20T06:55:49.992Z,9.90
2023-04-20T06:58:17.265Z,10.88
2023-04-20T07:00:44.513Z,11.00
2023-04-20T07:03:12.034Z,10.60
2023-04-20T07:05:39.445Z,9.57
2023-04-20T07:08:06.953Z,10.00
2023-04-20T07:10:34.176Z,9.20
2023-04-20T07:13:01.406Z,9.40
2023-04-20T07:15:28.666Z,9.00
2023-04-20T07:17:55.973Z,9.25
2023-04-20T07:20:23.356Z,10.32
2023-04-20T07:22:50.560Z,10.32
2023-04-20T07:25:17.926Z,9.57
2023-04-20T07:27:45.324Z,9.93
2023-04-20T07:30:12.945Z,9.35
2023-04-20T07:32:41.728Z,9.43
2023-04-20T07:35:09.580Z,9.25
2023-04-20T07:37:37.034Z,8.63
2023-04-20T07:40:07.767Z,9.30
2023-04-20T07:42:37.236Z,9.32
2023-04-20T07:45:05.969Z,9.98
2023-04-20T07:47:34.918Z,9.43
2023-04-20T07:50:02.532Z,9.27
2023-04-20T07:52:29.864Z,8.35
2023-04-20T07:54:59.347Z,9.68
2023-04-20T07:57:28.226Z,8.82
2023-04-20T07:59:55.545Z,8.75
2023-04-20T08:02:23.072Z,8.07
2023-04-20T08:04:50.970Z,8.82
2023-04-20T08:07:19.396Z,9.05
2023-04-20T08:09:46.601Z,8.55
2023-04-20T08:12:13.918Z,8.18
2023-04-20T08:14:41.454Z,8.10
2023-04-20T08:17:08.754Z,8.35
2023-04-20T08:19:36.354Z,8.15
2023-04-20T08:22:04.528Z,8.82
2023-04-20T08:24:32.228Z,8.52
2023-04-20T08:26:59.533Z,8.10
2023-04-20T08:29:26.915Z,8.57
2023-04-20T08:31:54.364Z,8.40
2023-04-20T08:34:22.117Z,8.48
2023-04-20T08:36:49.417Z,8.57
2023-04-20T08:39:21.869Z,9.85
2023-04-20T08:41:53.813Z,8.80
2023-04-20T08:44:21.752Z,9.10
2023-04-20T08:46:50.089Z,9.20
2023-04-20T08:49:19.073Z,9.15
2023-04-20T08:51:48.218Z,9.18
2023-04-20T08:54:16.930Z,9.40
2023-04-20T08:56:46.673Z,9.32
2023-04-20T08:59:14.972Z,10.13
2023-04-20T09:01:43.278Z,10.23
2023-04-20T09:04:27.297Z,10.07
2023-04-20T09:06:56.543Z,9.52
2023-04-20T09:09:25.738Z,9.85
2023-04-20T09:12:07.976Z,10.15
2023-04-20T09:14:46.319Z,9.57
2023-04-20T09:17:16.135Z,9.68
2023-04-20T09:19:53.435Z,10.32
2023-04-20T09:22:34.048Z,9.43
2023-04-20T09:25:12.172Z,9.82
2023-04-20T09:27:39.477Z,9.80
2023-04-20T09:30:07.943Z,9.30
2023-04-20T09:32:35.880Z,8.57
2023-04-20T09:35:03.160Z,9.60
2023-04-20T09:37:30.719Z,10.65
2023-04-20T09:40:00.881Z,10.13
2023-04-20T09:42:29.066Z,9.48
2023-04-20T09:44:57.535Z,10.07
2023-04-20T09:47:26.919Z,10.32
2023-04-20T09:49:54.879Z,9.82
2023-04-20T09:52:24.345Z,10.20
2023-04-20T09:54:52.084Z,10.00
2023-04-20T09:57:19.901Z,9.70
2023-04-20T09:59:47.590Z,9.98
2023-04-20T10:02:15.244Z,9.85
2023-04-20T10:04:57.279Z,10.38
2023-04-20T10:07:28.990Z,10.50
2023-04-20T10:10:07.690Z,10.32
2023-04-20T10:12:46.898Z,10.50
2023-04-20T10:15:14.353Z,11.48
2023-04-20T10:17:41.805Z,11.02
2023-04-20T10:20:27.731Z,10.63
2023-04-20T10:23:10.504Z,10.63
2023-04-20T10:25:37.873Z,11.38
2023-04-20T10:28:10.548Z,10.35
2023-04-20T10:30:49.617Z,11.32
2023-04-20T10:33:18.135Z,10.13
2023-04-20T10:35:49.748Z,11.05
2023-04-20T10:38:37.473Z,10.68
2023-04-20T10:41:12.226Z,11.18
2023-04-20T10:43:43.422Z,11.25
2023-04-20T10:46:24.905Z,10.02
2023-04-20T10:48:53.172Z,10.07
2023-04-20T10:51:21.274Z,9.95
2023-04-20T10:54:08.483Z,9.68
2023-04-20T10:56:45.906Z,10.20
2023-04-20T10:59:28.629Z,10.10
2023-04-20T11:01:56.230Z,9.60
2023-04-20T11:04:31.734Z,9.18
2023-04-20T11:07:10.600Z,18.27
2023-04-20T11:09:42.602Z,9.65
2023-04-20T11:14:52.700Z,8.90
2023-04-20T11:17:20.317Z,9.20
2023-04-20T11:19:47.791Z,8.52
2023-04-20T11:22:23.484Z,8.73
2023-04-20T11:24:50.899Z,8.23
2023-04-20T11:27:24.983Z,8.73
2023-04-20T11:29:59.840Z,8.30
2023-04-20T11:32:27.581Z,8.63
2023-04-20T11:35:06.410Z,8.63
2023-04-20T11:37:46.394Z,8.20
2023-04-20T11:40:15.207Z,8.48
2023-04-20T11:42:42.593Z,8.25
2023-04-20T11:45:11.754Z,8.10
2023-04-20T11:47:41.633Z,8.90
2023-04-20T11:50:10.464Z,9.35
2023-04-20T11:52:37.783Z,8.73
2023-04-20T11:55:06.009Z,8.30
2023-04-20T11:57:34.684Z,8.82
2023-04-20T12:00:02.069Z,8.02
2023-04-20T12:02:29.484Z,8.18
2023-04-20T12:04:57.158Z,7.55
2023-04-20T12:07:24.487Z,7.57
2023-04-20T12:09:51.737Z,7.50
2023-04-20T12:12:19.073Z,8.18
2023-04-20T12:14:46.360Z,7.88
2023-04-20T12:17:13.606Z,8.80
2023-04-20T12:19:40.846Z,8.57
2023-04-20T12:22:08.126Z,8.50
2023-04-20T12:24:35.351Z,8.30
2023-04-20T12:27:03.974Z,8.40
2023-04-20T12:29:33.125Z,8.98
2023-04-20T12:32:00.520Z,8.50
2023-04-20T12:34:27.885Z,10.57
2023-04-20T12:36:55.150Z,8.65
2023-04-20T12:39:22.526Z,8.82
2023-04-20T12:41:49.796Z,9.20
2023-04-20T12:44:17.737Z,8.63
2023-04-20T12:46:45.570Z,9.43
2023-04-20T12:49:12.821Z,8.95
2023-04-20T12:51:40.929Z,9.23
2023-04-20T12:54:08.616Z,9.48
2023-04-20T12:56:36.831Z,9.82
2023-04-20T12:59:04.195Z,9.68
2023-04-20T13:01:31.489Z,9.65
2023-04-20T13:03:58.920Z,8.88
2023-04-20T13:06:26.791Z,9.05
2023-04-20T13:08:54.225Z,9.75
2023-04-20T13:11:22.160Z,10.10
2023-04-20T13:13:49.407Z,9.23
2023-04-20T13:16:16.829Z,10.20
2023-04-20T13:18:44.142Z,9.55
2023-04-20T13:21:11.458Z,9.63
2023-04-20T13:23:40.018Z,9.93
2023-04-20T13:26:08.093Z,9.68
2023-04-20T13:28:35.477Z,9.25
2023-04-20T13:31:02.714Z,10.10
2023-04-20T13:33:30.347Z,9.35
2023-04-20T13:35:57.903Z,9.48
2023-04-20T13:38:25.258Z,9.73
2023-04-20T13:40:52.489Z,9.38
2023-04-20T13:43:21.467Z,10.38
2023-04-20T13:45:49.176Z,9.73
2023-04-20T13:48:16.533Z,8.82
2023-04-20T13:50:43.845Z,9.55
2023-04-20T13:53:11.115Z,9.50
2023-04-20T13:55:38.362Z,10.63
2023-04-20T13:58:05.637Z,10.43
2023-04-20T14:00:34.660Z,10.80
2023-04-20T14:03:02.466Z,10.65
2023-04-20T14:05:29.973Z,14.20
2023-04-20T14:08:01.480Z,10.88
2023-04-20T14:10:29.257Z,10.02
2023-04-20T14:12:56.690Z,11.40
2023-04-20T14:15:23.981Z,9.90
2023-04-20T14:17:52.657Z,9.23
2023-04-20T14:20:20.409Z,11.23
2023-04-20T14:22:47.738Z,10.98
2023-04-20T14:25:15.188Z,11.98
2023-04-20T14:27:42.552Z,11.23
2023-04-20T14:30:10.870Z,10.45
2023-04-20T14:32:38.142Z,10.93
2023-04-20T14:35:06.168Z,12.32
2023-04-20T14:37:33.514Z,11.07
2023-04-20T14:40:00.800Z,11.48
2023-04-20T14:42:28.075Z,10.85
2023-04-20T14:44:55.317Z,12.32
2023-04-20T14:47:22.598Z,10.98
2023-04-20T14:49:49.900Z,11.88
2023-04-20T14:52:17.210Z,11.30
2023-04-20T14:54:44.437Z,14.80
2023-04-20T14:57:11.658Z,11.48
2023-04-20T14:59:41.454Z,11.48
2023-04-20T15:02:08.946Z,11.93
2023-04-20T15:04:36.844Z,11.35
2023-04-20T15:07:04.339Z,11.52
2023-04-20T15:09:32.805Z,11.02
2023-04-20T15:12:00.136Z,11.20
2023-04-20T15:14:27.831Z,12.32
2023-04-20T15:16:55.340Z,12.25
2023-04-20T15:19:25.537Z,11.98
2023-04-20T15:21:52.754Z,11.48
2023-04-20T15:24:20.297Z,11.20
2023-04-20T15:26:47.757Z,11.70
2023-04-20T15:29:15.071Z,11.80
2023-04-20T15:31:43.571Z,11.70
2023-04-20T15:34:11.406Z,10.63
2023-04-20T15:36:38.747Z,11.20
2023-04-20T15:39:06.024Z,10.82
2023-04-20T15:41:33.379Z,11.32
2023-04-20T15:44:00.609Z,10.95
2023-04-20T15:46:27.904Z,10.95
2023-04-20T15:48:55.200Z,10.40
2023-04-20T15:51:22.814Z,9.85
2023-04-20T15:53:50.937Z,10.40
2023-04-20T15:56:18.879Z,10.45
2023-04-20T15:58:46.422Z,10.25
2023-04-20T16:01:13.729Z,10.80
2023-04-20T16:03:43.753Z,11.95
2023-04-20T16:06:31.736Z,13.65
2023-04-20T16:09:17.733Z,11.50
2023-04-20T16:11:45.023Z,11.02
2023-04-20T16:14:12.266Z,9.80
2023-04-20T16:16:39.533Z,10.10
2023-04-20T16:19:06.731Z,11.05
2023-04-20T16:21:34.663Z,10.40
2023-04-20T16:24:01.915Z,9.80
2023-04-20T16:26:29.241Z,10.55
2023-04-20T16:28:56.606Z,10.60
2023-04-20T16:31:24.179Z,10.65
2023-04-20T16:33:51.464Z,11.43
2023-04-20T16:36:18.791Z,11.40
2023-04-20T16:38:46.008Z,11.75
2023-04-20T16:41:13.309Z,11.82
2023-04-20T16:43:41.093Z,11.63
2023-04-20T16:46:12.889Z,11.15
2023-04-20T16:48:40.577Z,12.13
2023-04-20T16:51:09.775Z,10.82
2023-04-20T16:53:37.148Z,12.52
2023-04-20T16:56:04.472Z,11.38
2023-04-20T16:58:31.740Z,11.60
2023-04-20T17:00:59.093Z,11.38
2023-04-20T17:03:26.655Z,11.35
2023-04-20T17:05:54.049Z,11.93
2023-04-20T17:08:21.601Z,11.57
2023-04-20T17:10:48.880Z,11.70
2023-04-20T17:13:16.326Z,12.32
2023-04-20T17:15:45.135Z,12.48
2023-04-20T17:18:12.609Z,13.07
2023-04-20T17:20:41.789Z,12.32
2023-04-20T17:23:09.196Z,14.68
2023-04-20T17:25:36.459Z,13.23
2023-04-20T17:28:03.818Z,13.48
2023-04-20T17:30:31.304Z,14.02
2023-04-20T17:33:00.707Z,14.38
2023-04-20T17:35:27.982Z,13.30
2023-04-20T17:37:55.404Z,13.73
2023-04-20T17:40:22.684Z,13.60
2023-04-20T17:42:49.907Z,13.32
2023-04-20T17:45:17.442Z,13.77
2023-04-20T17:47:44.931Z,14.00
2023-04-20T17:50:13.692Z,26.10
2023-04-20T17:52:40.951Z,14.35
2023-04-20T17:55:08.998Z,14.40
2023-04-20T17:57:36.300Z,14.13
2023-04-20T18:00:05.261Z,14.63
2023-04-20T18:02:40.376Z,14.02
2023-04-20T18:05:08.160Z,14.10
2023-04-20T18:07:35.440Z,14.77
2023-04-20T18:10:03.981Z,14.60
2023-04-20T18:12:31.236Z,14.45
2023-04-20T18:14:58.532Z,13.98
2023-04-20T18:17:25.848Z,14.20
2023-04-20T18:19:53.136Z,14.00
2023-04-20T18:22:20.415Z,14.00
2023-04-20T18:24:47.656Z,14.20
2023-04-20T18:27:14.973Z,14.38
2023-04-20T18:29:42.244Z,14.95
2023-04-20T18:32:09.461Z,14.95
2023-04-20T18:34:36.962Z,14.80
2023-04-20T18:37:04.272Z,15.02
2023-04-20T18:39:31.566Z,14.98
2023-04-20T18:41:58.809Z,17.08
2023-04-20T18:44:28.364Z,15.95
2023-04-20T18:46:55.897Z,13.82
2023-04-20T18:49:23.287Z,14.77
2023-04-20T18:51:50.649Z,15.75
2023-04-20T18:54:18.211Z,15.60
2023-04-20T18:56:45.921Z,15.60
2023-04-20T18:59:13.249Z,15.30
2023-04-20T19:01:41.617Z,15.35
2023-04-20T19:04:09.278Z,15.20
2023-04-20T19:06:36.858Z,15.70
2023-04-20T19:09:06.539Z,17.52
2023-04-20T19:11:35.347Z,17.60
2023-04-20T19:14:02.839Z,16.48
2023-04-20T19:16:34.272Z,17.02
2023-04-20T19:19:03.077Z,15.48
2023-04-20T19:21:32.383Z,16.88
2023-04-20T19:23:59.752Z,16.63
2023-04-20T19:26:27.206Z,18.52
2023-04-20T19:28:54.618Z,18.88
2023-04-20T19:31:22.041Z,17.20
2023-04-20T19:33:49.358Z,15.75
2023-04-20T19:36:18.105Z,17.73
2023-04-20T19:38:45.996Z,16.83
2023-04-20T19:41:13.478Z,18.05
2023-04-20T19:43:41.124Z,17.63
2023-04-20T19:46:09.996Z,17.35
2023-04-20T19:48:37.638Z,16.70
2023-04-20T19:51:06.257Z,18.15
2023-04-20T19:53:34.092Z,17.67
2023-04-20T19:56:02.338Z,19.23
2023-04-20T19:58:30.653Z,19.58
2023-04-20T20:00:57.999Z,18.55
2023-04-20T20:03:25.590Z,20.08
2023-04-20T20:05:53.106Z,20.85
2023-04-20T20:08:20.562Z,18.40
2023-04-20T20:10:47.792Z,19.08
2023-04-20T20:13:15.132Z,19.15
2023-04-20T20:15:42.738Z,19.00
2023-04-20T20:18:12.518Z,18.65
2023-04-20T20:20:42.041Z,18.45
2023-04-20T20:23:09.722Z,18.95
2023-04-20T20:25:38.004Z,19.95
2023-04-20T20:28:05.827Z,18.55
2023-04-20T20:30:33.545Z,17.98
2023-04-20T20:33:01.202Z,19.30
2023-04-20T20:35:31.782Z,18.67
2023-04-20T20:38:00.309Z,18.63
2023-04-20T20:40:27.494Z,23.27
2023-04-20T20:42:54.756Z,20.00
2023-04-20T20:45:22.178Z,20.23
2023-04-20T20:47:49.937Z,20.38
2023-04-20T20:50:17.533Z,21.05
2023-04-20T20:52:44.782Z,20.30
2023-04-20T20:55:12.305Z,20.75
2023-04-20T20:57:39.697Z,19.75
2023-04-20T21:00:09.946Z,22.95
2023-04-20T21:02:37.429Z,20.52
2023-04-20T21:05:05.505Z,22.20
2023-04-20T21:07:32.828Z,20.83
2023-04-20T21:10:00.392Z,20.92
2023-04-20T21:12:27.658Z,21.33
2023-04-20T21:14:54.993Z,21.60
2023-04-20T21:17:22.282Z,22.33
2023-04-20T21:19:49.553Z,21.95
2023-04-20T21:22:16.851Z,22.63
2023-04-20T21:24:44.081Z,21.75
2023-04-20T21:27:11.435Z,24.95
2023-04-20T21:29:38.737Z,22.75
2023-04-20T21:32:06.073Z,21.80
2023-04-20T21:34:33.433Z,21.85
2023-04-20T21:37:04.239Z,21.17
2023-04-20T21:39:34.996Z,20.45
2023-04-20T21:42:03.408Z,20.33
2023-04-20T21:44:30.818Z,20.27
2023-04-20T21:46:58.112Z,21.08
2023-04-20T21:49:26.373Z,21.30
2023-04-20T21:51:53.654Z,20.98
2023-04-20T21:54:20.967Z,21.25
2023-04-20T21:56:48.260Z,21.42
2023-04-20T21:59:15.773Z,20.30
2023-04-20T22:01:43.095Z,21.42
2023-04-20T22:04:10.652Z,21.60
2023-04-20T22:06:38.172Z,19.45
2023-04-20T22:09:05.563Z,20.00
2023-04-20T22:11:36.654Z,21.70
2023-04-20T22:14:05.016Z,23.73
2023-04-20T22:16:34.082Z,20.05
2023-04-20T22:19:01.553Z,20.67
2023-04-20T22:21:28.936Z,19.85
2023-04-20T22:23:56.216Z,19.27
2023-04-20T22:26:23.522Z,19.58
2023-04-20T22:28:50.993Z,20.13
2023-04-20T22:31:18.379Z,19.23
2023-04-20T22:33:45.767Z,19.58
2023-04-20T22:36:13.247Z,20.73
2023-04-20T22:38:40.642Z,20.17
2023-04-20T22:41:08.033Z,20.73
2023-04-20T22:43:35.362Z,19.48
2023-04-20T22:46:02.579Z,22.33
2023-04-20T22:48:29.879Z,21.92
2023-04-20T22:51:00.795Z,22.38
2023-04-20T22:53:30.216Z,23.10
2023-04-20T22:56:05.579Z,22.35
2023-04-20T22:58:34.081Z,21.63
2023-04-20T23:01:01.378Z,22.48
2023-04-20T23:03:29.007Z,22.85
2023-04-20T23:05:57.723Z,22.58
2023-04-20T23:08:25.816Z,24.00
2023-04-20T23:10:56.226Z,22.33
2023-04-20T23:13:26.502Z,22.58
2023-04-20T23:15:54.001Z,19.60
2023-04-20T23:18:21.463Z,20.30
2023-04-20T23:20:48.737Z,21.27
2023-04-20T23:23:16.036Z,20.42
2023-04-20T23:25:43.879Z,20.55
2023-04-20T23:28:11.247Z,21.52
2023-04-20T23:30:38.559Z,21.73
2023-04-20T23:33:05.928Z,20.90
2023-04-20T23:35:33.641Z,22.25
2023-04-20T23:38:01.111Z,22.15
2023-04-20T23:40:28.379Z,21.73
2023-04-20T23:42:55.821Z,21.95
2023-04-20T23:45:23.485Z,21.15
2023-04-20T23:47:50.787Z,22.17
2023-04-20T23:50:18.076Z,22.42
2023-04-20T23:52:45.413Z,22.02
2023-04-20T23:55:12.665Z,20.52
2023-04-20T23:57:40.020Z,20.60
